createdAt,value
2023-04-12T00:00:56.064Z,49.13
2023-04-12T00:04:06.254Z,56.65
2023-04-12T00:07:12.420Z,54.83
2023-04-12T00:10:18.077Z,48.58
2023-04-12T00:13:23.554Z,57.53
2023-04-12T00:16:29.473Z,53.45
2023-04-12T00:19:41.724Z,50.42
2023-04-12T00:22:47.216Z,44.42
2023-04-12T00:25:52.541Z,56.35
2023-04-12T00:28:58.187Z,53.83
2023-04-12T00:32:05.865Z,51.85
2023-04-12T00:35:14.405Z,51.70
2023-04-12T00:38:19.793Z,48.45
2023-04-12T00:41:25.310Z,51.33
2023-04-12T00:44:31.421Z,62.85
2023-04-12T00:47:38.218Z,54.30
2023-04-12T00:50:47.856Z,55.70
2023-04-12T00:53:55.847Z,57.22
2023-04-12T00:57:01.419Z,51.40
2023-04-12T01:00:09.380Z,52.47
2023-04-12T01:03:16.785Z,52.78
2023-04-12T01:06:32.908Z,51.60
2023-04-12T01:09:41.668Z,53.42
2023-04-12T01:12:53.297Z,56.25
2023-04-12T01:16:02.922Z,54.05
2023-04-12T01:19:18.464Z,58.88
2023-04-12T01:22:33.175Z,52.53
2023-04-12T01:25:41.321Z,52.00
2023-04-12T01:28:50.109Z,52.85
2023-04-12T01:31:58.161Z,55.67
2023-04-12T01:35:05.688Z,49.70
2023-04-12T01:38:11.483Z,52.07
2023-04-12T01:41:16.983Z,61.35
2023-04-12T01:44:25.707Z,53.78
2023-04-12T01:47:31.207Z,48.40
2023-04-12T01:50:42.138Z,43.72
2023-04-12T01:53:50.811Z,44.08
2023-04-12T02:00:07.647Z,49.95
2023-04-12T02:03:20.769Z,48.65
2023-04-12T02:06:27.298Z,54.95
2023-04-12T02:09:32.497Z,51.33
2023-04-12T02:12:38.767Z,52.20
2023-04-12T02:15:46.604Z,44.60
2023-04-12T02:18:52.339Z,49.58
2023-04-12T02:21:57.972Z,48.03
2023-04-12T02:25:03.567Z,48.78
2023-04-12T02:28:09.814Z,52.92
2023-04-12T02:31:19.220Z,49.67
2023-04-12T02:34:26.524Z,46.95
2023-04-12T02:37:40.204Z,46.60
2023-04-12T02:40:46.098Z,48.40
2023-04-12T02:43:54.135Z,51.28
2023-04-12T02:47:02.902Z,47.45
2023-04-12T02:50:11.279Z,45.55
2023-04-12T02:53:27.386Z,46.67
2023-04-12T02:56:55.538Z,51.07
2023-04-12T03:00:15.656Z,51.65
2023-04-12T03:03:28.787Z,50.45
2023-04-12T03:06:40.534Z,69.47
2023-04-12T03:09:45.800Z,57.05
2023-04-12T03:12:52.179Z,51.90
2023-04-12T03:16:00.086Z,47.67
2023-04-12T03:19:15.268Z,55.25
2023-04-12T03:22:23.783Z,50.33
2023-04-12T03:25:33.522Z,54.05
2023-04-12T03:28:57.839Z,56.90
2023-04-12T03:32:03.337Z,61.00
2023-04-12T03:35:12.078Z,54.75
2023-04-12T03:38:20.082Z,56.97
2023-04-12T03:41:26.415Z,68.03
2023-04-12T03:44:33.366Z,59.67
2023-04-12T03:47:44.495Z,89.75
2023-04-12T03:50:55.231Z,62.42
2023-04-12T03:54:03.070Z,58.42
2023-04-12T03:57:17.037Z,74.68
2023-04-12T04:00:26.278Z,59.60
2023-04-12T04:03:43.924Z,65.90
2023-04-12T04:07:03.176Z,58.95
2023-04-12T04:10:16.968Z,71.30
2023-04-12T04:13:23.705Z,63.95
2023-04-12T04:16:33.649Z,67.90
2023-04-12T04:19:41.469Z,73.28
2023-04-12T04:22:50.304Z,68.90
2023-04-12T04:25:56.571Z,62.08
2023-04-12T04:29:05.337Z,72.18
2023-04-12T04:32:17.738Z,66.28
2023-04-12T04:35:24.613Z,64.38
2023-04-12T04:38:48.487Z,70.65
2023-04-12T04:42:07.183Z,72.13
2023-04-12T04:48:32.565Z,63.10
2023-04-12T04:51:37.688Z,67.63
2023-04-12T04:54:46.316Z,66.53
2023-04-12T05:01:00.113Z,71.65
2023-04-12T05:04:07.343Z,70.97
2023-04-12T05:07:13.758Z,59.08
2023-04-12T05:10:25.055Z,79.35
2023-04-12T05:13:31.362Z,64.72
2023-04-12T05:16:37.636Z,58.70
2023-04-12T05:19:45.419Z,56.90
2023-04-12T05:22:51.137Z,68.93
2023-04-12T05:25:59.309Z,65.63
2023-04-12T05:29:06.576Z,68.57
2023-04-12T05:32:11.806Z,58.88
2023-04-12T05:35:17.119Z,76.30
2023-04-12T05:38:23.258Z,60.30
2023-04-12T05:41:35.235Z,59.28
2023-04-12T05:44:41.836Z,60.55
2023-04-12T05:47:50.831Z,63.65
2023-04-12T05:50:56.413Z,58.78
2023-04-12T05:54:02.008Z,55.35
2023-04-12T05:57:13.478Z,46.20
2023-04-12T06:00:20.103Z,44.97
2023-04-12T06:03:27.126Z,47.70
2023-04-12T06:06:37.308Z,51.03
2023-04-12T06:09:43.322Z,44.88
2023-04-12T06:12:51.686Z,42.53
2023-04-12T06:19:03.125Z,36.03
2023-04-12T06:22:08.458Z,52.80
2023-04-12T06:25:14.588Z,43.80
2023-04-12T06:28:22.782Z,50.80
2023-04-12T06:31:30.078Z,44.28
2023-04-12T06:34:35.559Z,42.75
2023-04-12T06:37:45.243Z,39.08
2023-04-12T06:40:50.927Z,44.53
2023-04-12T06:43:58.943Z,39.60
2023-04-12T06:47:04.405Z,41.70
2023-04-12T06:50:10.600Z,37.97
2023-04-12T06:53:16.457Z,42.38
2023-04-12T06:56:21.881Z,44.15
2023-04-12T06:59:29.674Z,36.20
2023-04-12T07:02:35.084Z,35.08
2023-04-12T07:05:41.177Z,41.95
2023-04-12T07:08:46.354Z,39.42
2023-04-12T07:11:51.833Z,38.05
2023-04-12T07:14:59.696Z,39.90
2023-04-12T07:18:05.317Z,33.58
2023-04-12T07:21:14.795Z,34.47
2023-04-12T07:24:20.375Z,40.47
2023-04-12T07:27:25.789Z,40.22
2023-04-12T07:30:33.588Z,31.95
2023-04-12T07:33:41.338Z,38.72
2023-04-12T07:36:48.300Z,40.90
2023-04-12T07:39:54.101Z,40.30
2023-04-12T07:42:59.196Z,34.63
2023-04-12T07:46:09.090Z,40.92
2023-04-12T07:49:14.579Z,28.85
2023-04-12T07:52:20.044Z,33.75
2023-04-12T07:55:25.588Z,34.72
2023-04-12T07:58:31.080Z,29.88
2023-04-12T08:01:38.918Z,31.05
2023-04-12T08:04:46.091Z,28.10
2023-04-12T08:07:51.752Z,27.50
2023-04-12T08:10:57.421Z,27.75
2023-04-12T08:14:03.790Z,22.50
2023-04-12T08:17:11.569Z,22.67
2023-04-12T08:20:18.092Z,28.98
2023-04-12T08:23:23.735Z,22.27
2023-04-12T08:26:30.427Z,23.02
2023-04-12T08:29:35.724Z,24.38
2023-04-12T08:32:44.120Z,26.35
2023-04-12T08:35:49.886Z,19.45
2023-04-12T08:38:56.433Z,24.35
2023-04-12T08:42:01.935Z,22.50
2023-04-12T08:45:10.871Z,17.70
2023-04-12T08:48:19.303Z,16.85
2023-04-12T08:54:29.984Z,16.88
2023-04-12T08:57:36.250Z,12.80
2023-04-12T09:00:41.748Z,18.15
2023-04-12T09:03:49.986Z,14.77
2023-04-12T09:06:55.687Z,22.98
2023-04-12T09:10:01.510Z,19.35
2023-04-12T09:13:08.766Z,22.83
2023-04-12T09:16:14.714Z,15.90
2023-04-12T09:19:33.738Z,20.35
2023-04-12T09:22:40.359Z,21.95
2023-04-12T09:25:48.557Z,25.23
2023-04-12T09:28:54.106Z,22.75
2023-04-12T09:32:00.295Z,17.80
2023-04-12T09:35:09.177Z,22.88
2023-04-12T09:38:14.735Z,18.77
2023-04-12T09:41:26.713Z,21.65
2023-04-12T09:44:34.544Z,27.08
2023-04-12T09:47:41.607Z,32.60
2023-04-12T09:50:49.608Z,25.05
2023-04-12T09:53:57.473Z,23.63
2023-04-12T09:57:03.645Z,21.95
2023-04-12T10:00:12.939Z,22.98
2023-04-12T10:03:18.455Z,18.08
2023-04-12T10:06:27.239Z,20.30
2023-04-12T10:09:32.804Z,20.63
2023-04-12T10:12:39.273Z,22.90
2023-04-12T10:15:45.444Z,19.25
2023-04-12T10:18:53.048Z,20.50
2023-04-12T10:22:01.697Z,18.60
2023-04-12T10:25:08.475Z,19.75
2023-04-12T10:28:17.632Z,23.55
2023-04-12T10:31:33.443Z,19.58
2023-04-12T10:34:39.190Z,20.52
2023-04-12T10:37:59.513Z,15.55
2023-04-12T10:41:20.519Z,19.80
2023-04-12T10:44:29.340Z,19.63
2023-04-12T10:47:49.674Z,20.00
2023-04-12T10:51:14.741Z,17.67
2023-04-12T10:54:36.722Z,16.65
2023-04-12T10:57:48.349Z,15.15
2023-04-12T11:01:09.983Z,19.10
2023-04-12T11:04:20.875Z,20.38
2023-04-12T11:07:46.520Z,17.63
2023-04-12T11:11:23.077Z,17.33
2023-04-12T11:14:37.619Z,15.52
2023-04-12T11:17:43.537Z,15.32
2023-04-12T11:20:49.217Z,14.65
2023-04-12T11:23:56.959Z,16.67
2023-04-12T11:27:03.137Z,14.80
2023-04-12T11:30:12.664Z,14.68
2023-04-12T11:33:33.693Z,16.77
2023-04-12T11:36:39.170Z,18.23
2023-04-12T11:39:45.210Z,16.15
2023-04-12T11:42:51.019Z,14.27
2023-04-12T11:46:02.397Z,14.00
2023-04-12T11:49:07.864Z,11.95
2023-04-12T11:52:13.090Z,14.30
2023-04-12T11:55:20.592Z,13.90
2023-04-12T11:58:26.288Z,13.50
2023-04-12T12:01:34.310Z,11.25
2023-04-12T12:04:39.954Z,15.48
2023-04-12T12:07:45.798Z,15.55
2023-04-12T12:11:06.529Z,12.82
2023-04-12T12:14:12.760Z,11.05
2023-04-12T12:17:21.102Z,11.65
2023-04-12T12:20:27.984Z,11.85
2023-04-12T12:23:33.921Z,9.90
2023-04-12T12:26:39.639Z,9.60
2023-04-12T12:29:45.015Z,14.20
2023-04-12T12:32:53.696Z,10.93
2023-04-12T12:36:02.045Z,12.02
2023-04-12T12:39:11.411Z,10.25
2023-04-12T12:42:17.200Z,12.05
2023-04-12T12:45:24.547Z,10.88
2023-04-12T12:48:32.653Z,11.50
2023-04-12T12:51:38.332Z,15.85
2023-04-12T12:54:43.721Z,12.75
2023-04-12T12:58:02.274Z,13.90
2023-04-12T13:01:12.261Z,14.25
2023-04-12T13:04:20.072Z,13.25
2023-04-12T13:07:25.732Z,13.25
2023-04-12T13:10:30.783Z,13.95
2023-04-12T13:13:36.929Z,10.57
2023-04-12T13:16:42.253Z,13.60
2023-04-12T13:19:52.442Z,11.45
2023-04-12T13:22:58.134Z,15.73
2023-04-12T13:26:03.458Z,11.57
2023-04-12T13:29:08.914Z,12.18
2023-04-12T13:32:14.557Z,14.85
2023-04-12T13:35:23.030Z,14.15
2023-04-12T13:38:28.285Z,15.13
2023-04-12T13:41:34.584Z,13.40
2023-04-12T13:44:39.992Z,14.32
2023-04-12T13:47:45.468Z,16.15
2023-04-12T13:50:55.518Z,14.20
2023-04-12T13:54:01.407Z,14.35
2023-04-12T13:57:07.547Z,15.52
2023-04-12T14:00:13.579Z,13.38
2023-04-12T14:03:19.266Z,13.82
2023-04-12T14:06:27.468Z,13.38
2023-04-12T14:09:33.932Z,14.48
2023-04-12T14:12:39.098Z,12.73
2023-04-12T14:15:44.455Z,11.38
2023-04-12T14:18:49.926Z,11.73
2023-04-12T14:21:58.019Z,12.23
2023-04-12T14:25:03.408Z,15.82
2023-04-12T14:28:08.722Z,13.40
2023-04-12T14:31:15.139Z,18.15
2023-04-12T14:34:20.679Z,14.63
2023-04-12T14:37:28.407Z,15.38
2023-04-12T14:43:38.949Z,15.77
2023-04-12T14:46:44.243Z,14.88
2023-04-12T14:49:49.619Z,18.08
2023-04-12T14:52:57.593Z,16.15
2023-04-12T14:56:03.574Z,18.42
2023-04-12T14:59:09.219Z,19.75
2023-04-12T15:02:14.882Z,17.58
2023-04-12T15:05:20.247Z,16.40
2023-04-12T15:08:29.627Z,16.60
2023-04-12T15:11:36.823Z,19.27
2023-04-12T15:14:42.334Z,19.00
2023-04-12T15:17:48.633Z,18.33
2023-04-12T15:20:54.457Z,18.00
2023-04-12T15:24:02.951Z,21.42
2023-04-12T15:27:08.628Z,17.80
2023-04-12T15:30:15.827Z,16.13
2023-04-12T15:33:21.361Z,14.85
2023-04-12T15:36:34.489Z,17.65
2023-04-12T15:39:42.957Z,18.90
2023-04-12T15:45:55.123Z,16.42
2023-04-12T15:49:00.842Z,15.17
2023-04-12T15:52:06.268Z,18.75
2023-04-12T15:55:17.265Z,17.17
2023-04-12T15:58:23.231Z,21.33
2023-04-12T16:01:29.747Z,16.15
2023-04-12T16:04:35.052Z,17.63
2023-04-12T16:07:40.875Z,25.75
2023-04-12T16:10:49.295Z,19.52
2023-04-12T16:16:59.765Z,27.70
2023-04-12T16:20:06.432Z,21.83
2023-04-12T16:23:12.288Z,27.80
2023-04-12T16:26:22.132Z,22.83
2023-04-12T16:29:27.926Z,25.10
2023-04-12T16:32:33.335Z,25.63
2023-04-12T16:35:38.795Z,24.67
2023-04-12T16:38:44.229Z,24.83
2023-04-12T16:41:52.302Z,28.27
2023-04-12T16:44:57.636Z,21.48
2023-04-12T16:48:03.407Z,22.90
2023-04-12T16:51:09.222Z,25.42
2023-04-12T16:54:14.674Z,24.05
2023-04-12T16:57:23.956Z,25.73
2023-04-12T17:00:30.068Z,27.15
2023-04-12T17:03:35.399Z,24.35
2023-04-12T17:06:41.596Z,29.00
2023-04-12T17:09:47.288Z,32.17
2023-04-12T17:12:57.879Z,19.70
2023-04-12T17:16:04.367Z,25.23
2023-04-12T17:19:10.579Z,27.40
2023-04-12T17:22:16.222Z,30.08
2023-04-12T17:25:23.316Z,27.77
2023-04-12T17:28:35.000Z,20.45
2023-04-12T17:31:41.527Z,24.80
2023-04-12T17:34:46.969Z,23.73
2023-04-12T17:37:52.476Z,30.85
2023-04-12T17:40:57.787Z,25.70
2023-04-12T17:44:06.082Z,28.45
2023-04-12T17:50:17.662Z,20.85
2023-04-12T17:53:23.286Z,24.73
2023-04-12T17:56:28.867Z,28.63
2023-04-12T17:59:37.402Z,24.92
2023-04-12T18:02:43.287Z,21.45
2023-04-12T18:05:49.156Z,35.90
2023-04-12T18:08:54.459Z,33.40
2023-04-12T18:12:00.227Z,33.63
2023-04-12T18:15:08.908Z,37.65
2023-04-12T18:18:14.305Z,26.20
2023-04-12T18:21:21.611Z,32.05
2023-04-12T18:24:27.115Z,33.40
2023-04-12T18:27:32.542Z,31.88
2023-04-12T18:30:40.763Z,23.73
2023-04-12T18:33:46.085Z,25.73
2023-04-12T18:36:51.541Z,28.20
2023-04-12T18:39:56.967Z,26.33
2023-04-12T18:43:03.390Z,29.23
2023-04-12T18:46:11.628Z,40.10
2023-04-12T18:49:17.408Z,38.50
2023-04-12T18:52:22.771Z,36.88
2023-04-12T18:55:28.186Z,31.45
2023-04-12T18:58:50.469Z,28.70
2023-04-12T19:02:01.784Z,33.97
2023-04-12T19:05:09.398Z,30.67
2023-04-12T19:08:14.545Z,30.00
2023-04-12T19:11:19.767Z,32.65
2023-04-12T19:14:25.605Z,26.45
2023-04-12T19:17:37.054Z,26.05
2023-04-12T19:20:42.770Z,30.42
2023-04-12T19:23:48.461Z,25.95
2023-04-12T19:26:53.607Z,24.65
2023-04-12T19:29:59.294Z,31.10
2023-04-12T19:33:08.434Z,33.17
2023-04-12T19:36:13.813Z,28.98
2023-04-12T19:39:20.403Z,26.50
2023-04-12T19:42:25.826Z,29.30
2023-04-12T19:45:31.764Z,29.52
2023-04-12T19:48:40.093Z,33.58
2023-04-12T19:51:46.123Z,26.92
2023-04-12T19:54:52.850Z,40.03
2023-04-12T19:57:59.029Z,35.15
2023-04-12T20:01:04.532Z,23.50
2023-04-12T20:04:12.923Z,28.98
2023-04-12T20:10:24.864Z,34.72
2023-04-12T20:13:31.212Z,33.90
2023-04-12T20:16:37.035Z,33.30
2023-04-12T20:19:44.915Z,39.95
2023-04-12T20:22:52.314Z,34.05
2023-04-12T20:25:58.082Z,36.27
2023-04-12T20:29:04.664Z,34.13
2023-04-12T20:32:10.153Z,40.47
2023-04-12T20:35:19.091Z,38.05
2023-04-12T20:38:24.868Z,31.23
2023-04-12T20:41:30.250Z,31.38
2023-04-12T20:44:36.342Z,35.90
2023-04-12T20:47:42.127Z,39.67
2023-04-12T20:50:50.667Z,33.63
2023-04-12T20:53:58.809Z,35.63
2023-04-12T20:57:04.512Z,39.50
2023-04-12T21:00:18.097Z,36.47
2023-04-12T21:03:23.861Z,41.65
2023-04-12T21:06:32.128Z,31.67
2023-04-12T21:09:37.940Z,34.20
2023-04-12T21:12:45.579Z,30.65
2023-04-12T21:15:50.965Z,34.03
2023-04-12T21:18:56.724Z,36.95
2023-04-12T21:22:04.840Z,35.95
2023-04-12T21:25:14.040Z,41.50
2023-04-12T21:28:21.143Z,32.90
2023-04-12T21:31:26.858Z,30.13
2023-04-12T21:34:33.075Z,41.08
2023-04-12T21:37:41.334Z,34.67
2023-04-12T21:40:46.738Z,31.30
2023-04-12T21:43:52.805Z,35.05
2023-04-12T21:46:58.272Z,33.28
2023-04-12T21:50:03.830Z,33.28
2023-04-12T21:53:12.178Z,32.92
2023-04-12T21:56:17.829Z,31.77
2023-04-12T21:59:23.017Z,39.88
2023-04-12T22:02:28.790Z,33.78
2023-04-12T22:05:36.185Z,33.75
2023-04-12T22:08:44.708Z,33.80
2023-04-12T22:14:55.108Z,32.92
2023-04-12T22:18:00.539Z,28.85
2023-04-12T22:21:08.280Z,27.00
2023-04-12T22:24:16.542Z,33.78
2023-04-12T22:27:21.865Z,36.17
2023-04-12T22:30:27.547Z,32.28
2023-04-12T22:33:33.942Z,29.30
2023-04-12T22:36:42.436Z,31.85
2023-04-12T22:39:52.123Z,29.95
2023-04-12T22:42:58.512Z,28.65
2023-04-12T22:46:06.420Z,23.73
2023-04-12T22:49:12.597Z,29.88
2023-04-12T22:52:18.193Z,33.03
2023-04-12T22:55:27.108Z,29.05
2023-04-12T22:58:32.440Z,27.27
2023-04-12T23:01:37.903Z,28.17
2023-04-12T23:04:49.328Z,29.70
2023-04-12T23:07:54.982Z,29.83
2023-04-12T23:11:05.024Z,29.92
2023-04-12T23:14:10.928Z,40.70
2023-04-12T23:17:17.180Z,29.23
2023-04-12T23:20:22.847Z,28.73
2023-04-12T23:23:28.268Z,25.63
2023-04-12T23:26:36.940Z,31.27
2023-04-12T23:29:42.603Z,34.78
2023-04-12T23:32:48.506Z,26.52
2023-04-12T23:35:56.436Z,33.90
2023-04-12T23:39:02.466Z,28.67
2023-04-12T23:42:11.993Z,27.88
2023-04-12T23:45:17.679Z,35.50
2023-04-12T23:48:23.164Z,39.80
2023-04-12T23:51:28.610Z,33.75
2023-04-12T23:54:33.884Z,33.13
2023-04-12T23:57:42.560Z,37.20
